Time;durP1;ratioP1;P1;durP2;ratioP2;P2;SDS_P1;SDS_P2;PMS_P1;PMS_P2;Temp;Humidity;BMP_temperature;BMP_pressure;BME280_temperature;BME280_humidity;BME280_pressure;Samples;Min_cycle;Max_cycle;Signal;HPM_P1;HPM_P2
2023/04/13 00:00:10;;;;;;;8.27;8.07;;;20.30;51.20;;;;;;5093308;28;20442;-53
2023/04/13 00:02:37;;;;;;;7.30;7.20;;;20.30;51.20;;;;;;5094755;28;20537;-53
2023/04/13 00:05:08;;;;;;;7.43;7.30;;;20.30;51.20;;;;;;5094788;28;20546;-50
2023/04/13 00:07:36;;;;;;;7.70;7.50;;;20.20;51.10;;;;;;5094636;28;20845;-50
2023/04/13 00:10:04;;;;;;;7.83;7.63;;;20.20;51.10;;;;;;5094421;28;20944;-53
2023/04/13 00:12:33;;;;;;;7.53;7.33;;;20.20;51.20;;;;;;5094587;28;20521;-53
2023/04/13 00:15:00;;;;;;;7.90;7.80;;;20.20;51.20;;;;;;5094482;28;20454;-52
2023/04/13 00:17:27;;;;;;;7.40;7.30;;;20.20;51.20;;;;;;5094263;28;20501;-51
2023/04/13 00:19:56;;;;;;;7.83;7.63;;;20.20;51.30;;;;;;5093997;28;20534;-54
2023/04/13 00:22:23;;;;;;;8.00;7.80;;;20.20;51.20;;;;;;5094082;28;20478;-50
2023/04/13 00:24:53;;;;;;;7.77;7.33;;;20.20;51.20;;;;;;5093793;28;20949;-52
2023/04/13 00:27:20;;;;;;;7.87;7.67;;;20.10;51.20;;;;;;5094191;28;20509;-51
2023/04/13 00:29:48;;;;;;;7.50;7.40;;;20.10;51.10;;;;;;5094074;28;20442;-50
2023/04/13 00:32:15;;;;;;;7.97;7.77;;;20.10;51.20;;;;;;5094257;28;20542;-50
2023/04/13 00:34:42;;;;;;;8.00;7.77;;;20.10;51.20;;;;;;5094063;28;20537;-52
2023/04/13 00:37:10;;;;;;;7.77;7.67;;;20.10;51.20;;;;;;5093814;28;20639;-50
2023/04/13 00:39:37;;;;;;;8.00;7.80;;;20.10;51.30;;;;;;5093780;28;20790;-51
2023/04/13 00:42:06;;;;;;;7.70;7.60;;;20.10;51.30;;;;;;5094292;28;20469;-50
2023/04/13 00:44:33;;;;;;;8.00;7.80;;;20.10;51.30;;;;;;5093887;28;20474;-50
2023/04/13 00:47:03;;;;;;;7.87;7.77;;;20.10;51.30;;;;;;5093743;28;20554;-51
2023/04/13 00:49:32;;;;;;;8.20;8.00;;;20.10;51.30;;;;;;5093496;28;21016;-51
2023/04/13 00:51:59;;;;;;;7.87;7.67;;;20.00;51.30;;;;;;5093849;28;20482;-53
2023/04/13 00:54:28;;;;;;;7.73;7.53;;;20.10;51.30;;;;;;5093858;28;20518;-51
2023/04/13 00:56:55;;;;;;;7.77;7.57;;;20.00;51.30;;;;;;5093485;28;20474;-52
2023/04/13 00:59:23;;;;;;;7.87;7.73;;;20.00;51.30;;;;;;5093392;28;20442;-50
2023/04/13 01:01:55;;;;;;;7.90;7.70;;;20.00;51.20;;;;;;5093662;28;20450;-51
2023/04/13 01:04:24;;;;;;;8.00;7.80;;;20.00;51.20;;;;;;5093752;28;21002;-50
2023/04/13 01:06:57;;;;;;;8.00;7.90;;;20.00;51.30;;;;;;5093353;28;20545;-54
2023/04/13 01:09:30;;;;;;;8.23;8.13;;;20.00;51.30;;;;;;5093202;28;20478;-50
2023/04/13 01:12:03;;;;;;;8.40;8.20;;;20.00;51.20;;;;;;5092236;28;20862;-50
2023/04/13 01:14:39;;;;;;;8.23;8.03;;;20.00;51.20;;;;;;5093519;28;20489;-50
2023/04/13 01:17:14;;;;;;;7.90;7.80;;;19.90;51.20;;;;;;5093167;28;20555;-51
2023/04/13 01:19:51;;;;;;;8.10;7.90;;;19.90;51.20;;;;;;5092946;28;20824;-51
2023/04/13 01:22:21;;;;;;;8.17;8.07;;;19.90;51.20;;;;;;5093290;28;20449;-52
2023/04/13 01:24:59;;;;;;;7.70;7.50;;;19.90;51.20;;;;;;5093540;28;20442;-54
2023/04/13 01:27:42;;;;;;;7.60;7.50;;;19.90;51.20;;;;;;5092913;28;20553;-55
2023/04/13 01:30:10;;;;;;;7.80;7.70;;;19.90;51.20;;;;;;5092719;28;20479;-53
2023/04/13 01:32:38;;;;;;;7.77;7.67;;;19.90;51.20;;;;;;5093094;28;20767;-55
2023/04/13 01:35:09;;;;;;;7.90;7.77;;;19.90;51.20;;;;;;5093102;28;20442;-54
2023/04/13 01:37:36;;;;;;;7.70;7.60;;;19.90;51.30;;;;;;5092675;28;20482;-54
2023/04/13 01:40:11;;;;;;;7.67;7.57;;;19.90;51.20;;;;;;5092912;28;20438;-52
2023/04/13 01:42:40;;;;;;;8.00;7.80;;;19.80;51.20;;;;;;5093608;28;20445;-51
2023/04/13 01:45:12;;;;;;;7.83;7.73;;;19.90;51.20;;;;;;5092748;28;20805;-50
2023/04/13 01:47:43;;;;;;;7.90;7.70;;;19.80;51.10;;;;;;5091184;28;20494;-50
2023/04/13 01:50:16;;;;;;;7.60;7.50;;;19.90;51.30;;;;;;5092904;28;20547;-52
2023/04/13 01:52:43;;;;;;;7.70;7.60;;;19.80;51.10;;;;;;5092954;28;20525;-50
2023/04/13 01:55:12;;;;;;;7.77;7.57;;;19.90;51.20;;;;;;5092480;28;20478;-51
2023/04/13 01:57:44;;;;;;;7.87;7.67;;;19.80;51.20;;;;;;5090367;28;20470;-50
2023/04/13 02:00:14;;;;;;;7.90;7.70;;;19.80;51.20;;;;;;5092672;28;20937;-50
2023/04/13 02:02:41;;;;;;;7.83;7.53;;;19.80;51.20;;;;;;5092531;28;20921;-50
2023/04/13 02:05:09;;;;;;;8.10;7.90;;;19.80;51.20;;;;;;5092439;28;20450;-51
2023/04/13 02:07:37;;;;;;;7.83;7.63;;;19.80;51.20;;;;;;5091931;28;20462;-50
2023/04/13 02:10:05;;;;;;;7.97;7.87;;;19.80;51.20;;;;;;5092739;28;20442;-50
2023/04/13 02:12:33;;;;;;;8.00;7.80;;;19.80;51.20;;;;;;5092227;28;21022;-50
2023/04/13 02:15:01;;;;;;;7.30;7.17;;;19.80;51.30;;;;;;5093255;28;20450;-51
2023/04/13 02:17:28;;;;;;;7.13;7.03;;;19.80;51.20;;;;;;5092041;28;20565;-50
2023/04/13 02:19:56;;;;;;;7.40;7.30;;;19.70;51.20;;;;;;5092163;28;20446;-50
2023/04/13 02:22:23;;;;;;;7.73;7.53;;;19.70;51.20;;;;;;5091753;28;20442;-52
2023/04/13 02:24:50;;;;;;;8.30;8.20;;;19.70;51.20;;;;;;5092115;28;20454;-50
2023/04/13 02:27:17;;;;;;;7.63;7.53;;;19.70;51.20;;;;;;5091471;28;20501;-53
2023/04/13 02:29:44;;;;;;;8.00;7.80;;;19.70;51.20;;;;;;5091920;28;20560;-51
2023/04/13 02:32:13;;;;;;;8.07;7.87;;;19.70;51.20;;;;;;5091970;28;20445;-51
2023/04/13 02:34:40;;;;;;;7.90;7.70;;;19.70;51.20;;;;;;5091782;28;20851;-50
2023/04/13 02:37:08;;;;;;;8.10;7.90;;;19.70;51.20;;;;;;5091905;28;20902;-51
2023/04/13 02:39:35;;;;;;;7.80;7.70;;;19.70;51.20;;;;;;5091793;28;20449;-51
2023/04/13 02:42:03;;;;;;;7.83;7.70;;;19.70;51.20;;;;;;5091746;28;20446;-51
2023/04/13 02:44:30;;;;;;;7.70;7.50;;;19.70;51.20;;;;;;5091591;28;20442;-51
2023/04/13 02:46:56;;;;;;;7.47;7.37;;;19.70;51.10;;;;;;5091557;28;20454;-51
2023/04/13 02:49:25;;;;;;;7.90;7.70;;;19.60;51.00;;;;;;5091709;28;20572;-52
2023/04/13 02:51:52;;;;;;;7.80;7.60;;;19.60;51.00;;;;;;5091638;28;20478;-51
2023/04/13 02:54:19;;;;;;;7.80;7.70;;;19.60;51.00;;;;;;5091431;28;20485;-50
2023/04/13 02:56:46;;;;;;;7.80;7.70;;;19.60;51.00;;;;;;5091403;28;20887;-51
2023/04/13 02:59:13;;;;;;;8.33;8.13;;;19.60;51.00;;;;;;5091594;28;20499;-50
2023/04/13 03:01:40;;;;;;;9.30;9.10;;;19.60;51.00;;;;;;5091672;28;20496;-50
2023/04/13 03:04:08;;;;;;;9.43;9.23;;;19.60;51.10;;;;;;5091412;28;20500;-50
2023/04/13 03:06:36;;;;;;;9.50;9.30;;;19.60;51.10;;;;;;5091398;28;20462;-50
2023/04/13 03:09:03;;;;;;;9.30;9.10;;;19.60;51.00;;;;;;5091352;28;20514;-51
2023/04/13 03:11:30;;;;;;;9.40;9.20;;;19.60;51.10;;;;;;5091480;28;20507;-51
2023/04/13 03:13:59;;;;;;;9.50;9.20;;;19.60;51.10;;;;;;5091108;28;20478;-51
2023/04/13 03:16:27;;;;;;;9.77;9.47;;;19.60;51.00;;;;;;5051193;28;20537;-51
2023/04/13 03:18:54;;;;;;;9.20;9.00;;;19.50;51.00;;;;;;5051047;28;20483;-50
2023/04/13 03:21:21;;;;;;;9.43;9.23;;;19.50;51.00;;;;;;5051329;28;20490;-51
2023/04/13 03:23:50;;;;;;;9.70;9.50;;;19.50;51.00;;;;;;5051253;28;20809;-52
2023/04/13 03:26:17;;;;;;;9.90;9.70;;;19.50;51.00;;;;;;5090656;28;20494;-51
2023/04/13 03:28:43;;;;;;;9.70;9.50;;;19.50;51.00;;;;;;5091260;28;20912;-50
2023/04/13 03:31:10;;;;;;;9.60;9.40;;;19.50;51.00;;;;;;5091477;28;20515;-51
2023/04/13 03:33:37;;;;;;;9.40;9.20;;;19.50;51.00;;;;;;5091610;28;20503;-51
2023/04/13 03:36:05;;;;;;;9.40;9.20;;;19.50;50.90;;;;;;5095293;28;20509;-50
2023/04/13 03:38:32;;;;;;;9.57;9.37;;;19.40;50.80;;;;;;5095070;28;20466;-50
2023/04/13 03:41:00;;;;;;;9.50;9.30;;;19.40;50.80;;;;;;5094922;28;20500;-53
2023/04/13 03:43:27;;;;;;;9.20;9.00;;;19.40;50.80;;;;;;5095213;28;20608;-55
2023/04/13 03:45:54;;;;;;;9.10;8.90;;;19.40;50.80;;;;;;5095002;28;20481;-54
2023/04/13 03:48:21;;;;;;;9.20;9.00;;;19.40;51.30;;;;;;5094811;28;20716;-51
2023/04/13 03:50:48;;;;;;;9.13;8.93;;;19.50;50.80;;;;;;5094821;28;20454;-50
2023/04/13 03:53:15;;;;;;;9.10;8.90;;;19.40;50.80;;;;;;5094883;28;20482;-53
2023/04/13 03:55:42;;;;;;;9.23;9.03;;;19.50;50.80;;;;;;5094870;28;20864;-51
2023/04/13 03:58:10;;;;;;;9.30;9.10;;;19.40;50.70;;;;;;5094762;28;20537;-50
2023/04/13 04:00:37;;;;;;;9.40;9.20;;;19.40;50.70;;;;;;5094521;28;20453;-53
2023/04/13 04:03:04;;;;;;;9.43;9.13;;;19.40;50.70;;;;;;5094906;28;20450;-51
2023/04/13 04:05:31;;;;;;;8.80;8.60;;;19.40;50.70;;;;;;5094647;28;20988;-51
2023/04/13 04:07:58;;;;;;;9.10;8.80;;;19.40;51.20;;;;;;5094550;28;20952;-51
2023/04/13 04:10:26;;;;;;;9.27;9.07;;;19.40;50.70;;;;;;5094412;28;20569;-50
2023/04/13 04:12:53;;;;;;;9.93;9.63;;;19.40;50.70;;;;;;5094628;28;20453;-51
2023/04/13 04:15:21;;;;;;;9.30;9.10;;;19.40;50.70;;;;;;5094678;28;20446;-51
2023/04/13 04:17:48;;;;;;;9.37;9.17;;;19.30;50.60;;;;;;5094295;28;20544;-52
2023/04/13 04:20:16;;;;;;;9.87;9.67;;;19.40;50.70;;;;;;5094355;28;20526;-50
2023/04/13 04:22:43;;;;;;;9.50;9.30;;;19.30;50.70;;;;;;5094401;28;20878;-50
2023/04/13 04:25:10;;;;;;;9.50;9.30;;;19.30;50.70;;;;;;5094428;28;20535;-52
2023/04/13 04:27:37;;;;;;;9.83;9.63;;;19.30;50.70;;;;;;5094172;28;20498;-51
2023/04/13 04:30:05;;;;;;;9.80;9.60;;;19.30;50.70;;;;;;5093863;28;20482;-51
2023/04/13 04:32:35;;;;;;;9.90;9.50;;;19.30;50.80;;;;;;5093994;28;20868;-50
2023/04/13 04:35:04;;;;;;;10.37;9.97;;;19.30;51.00;;;;;;5094164;28;20460;-52
2023/04/13 04:37:36;;;;;;;10.70;10.20;;;19.40;51.60;;;;;;5093916;28;20484;-51
2023/04/13 04:40:06;;;;;;;12.10;11.23;;;19.40;52.90;;;;;;5093850;28;20446;-51
2023/04/13 04:42:33;;;;;;;11.40;10.80;;;19.40;55.20;;;;;;5094111;28;20442;-50
2023/04/13 04:45:00;;;;;;;12.60;11.30;;;19.40;56.20;;;;;;5093755;28;20481;-51
2023/04/13 04:47:29;;;;;;;12.80;11.80;;;19.50;57.40;;;;;;5093767;28;20555;-51
2023/04/13 04:49:57;;;;;;;12.53;11.67;;;19.50;60.30;;;;;;5093378;28;20474;-52
2023/04/13 04:52:25;;;;;;;13.17;12.27;;;19.50;64.00;;;;;;5093512;28;20500;-54
2023/04/13 04:54:53;;;;;;;11.70;10.80;;;19.40;65.00;;;;;;5093974;28;20480;-54
2023/04/13 04:57:19;;;;;;;11.63;10.83;;;19.40;64.60;;;;;;5093696;28;20895;-53
2023/04/13 04:59:48;;;;;;;11.97;11.40;;;19.40;63.10;;;;;;5093994;28;20470;-51
2023/04/13 05:02:15;;;;;;;13.43;12.60;;;19.40;62.80;;;;;;5093732;28;20559;-53
2023/04/13 05:04:41;;;;;;;13.13;12.27;;;19.40;61.80;;;;;;5093701;28;20524;-51
2023/04/13 05:07:10;;;;;;;13.43;12.20;;;19.40;61.00;;;;;;5093489;28;20906;-52
2023/04/13 05:09:37;;;;;;;11.97;11.17;;;19.40;60.60;;;;;;5093473;28;20513;-53
2023/04/13 05:12:04;;;;;;;11.33;10.93;;;19.40;59.90;;;;;;5093696;28;20442;-51
2023/04/13 05:14:31;;;;;;;12.37;11.07;;;19.40;59.60;;;;;;5093522;28;20481;-51
2023/04/13 05:16:59;;;;;;;11.73;11.23;;;19.40;59.20;;;;;;5093113;28;20505;-51
2023/04/13 05:19:26;;;;;;;10.60;10.30;;;19.40;58.90;;;;;;5093482;28;20464;-55
2023/04/13 05:21:53;;;;;;;11.27;10.73;;;19.40;58.50;;;;;;5093271;28;20446;-51
2023/04/13 05:24:21;;;;;;;11.27;10.77;;;19.40;58.30;;;;;;5093180;28;20443;-51
2023/04/13 05:26:48;;;;;;;11.03;10.10;;;19.40;57.90;;;;;;5092946;28;20905;-52
2023/04/13 05:29:15;;;;;;;11.23;10.83;;;19.30;57.60;;;;;;5092975;28;20529;-50
2023/04/13 05:31:42;;;;;;;11.53;10.87;;;19.30;57.20;;;;;;5093033;28;20525;-51
2023/04/13 05:34:10;;;;;;;10.93;10.43;;;19.30;57.00;;;;;;5093310;28;20533;-51
2023/04/13 05:36:38;;;;;;;11.23;10.70;;;19.30;56.80;;;;;;5093218;28;20558;-51
2023/04/13 05:39:04;;;;;;;10.80;10.40;;;19.40;56.70;;;;;;5093107;28;20445;-51
2023/04/13 05:41:33;;;;;;;11.00;10.33;;;19.30;56.40;;;;;;5092859;28;20446;-51
2023/04/13 05:44:00;;;;;;;10.87;10.27;;;19.30;56.20;;;;;;5092672;28;20451;-53
2023/04/13 05:46:26;;;;;;;10.33;10.03;;;19.30;56.00;;;;;;5092799;28;20887;-53
2023/04/13 05:48:53;;;;;;;10.37;10.07;;;19.30;55.80;;;;;;5092363;28;20893;-51
2023/04/13 05:51:21;;;;;;;9.67;9.37;;;19.30;55.60;;;;;;5092548;28;20865;-51
2023/04/13 05:53:48;;;;;;;10.63;10.17;;;19.30;55.40;;;;;;5092966;28;20447;-51
2023/04/13 05:56:15;;;;;;;11.43;11.03;;;19.30;55.40;;;;;;5092305;28;20494;-52
2023/04/13 05:58:43;;;;;;;11.80;11.23;;;19.30;55.20;;;;;;5092147;28;20449;-52
2023/04/13 06:01:11;;;;;;;12.03;11.50;;;19.30;55.00;;;;;;5092640;28;20481;-51
2023/04/13 06:03:37;;;;;;;11.17;10.87;;;19.30;55.00;;;;;;5092488;28;20808;-50
2023/04/13 06:06:05;;;;;;;11.10;10.50;;;19.30;54.80;;;;;;5092567;28;20520;-51
2023/04/13 06:08:32;;;;;;;11.30;10.90;;;19.30;54.70;;;;;;5092369;28;20471;-52
2023/04/13 06:10:59;;;;;;;12.07;11.47;;;19.30;54.50;;;;;;5092245;28;20481;-53
2023/04/13 06:13:26;;;;;;;11.33;10.93;;;19.30;54.40;;;;;;5092656;28;20446;-51
2023/04/13 06:15:54;;;;;;;11.50;11.10;;;19.20;54.30;;;;;;5092290;28;20497;-51
2023/04/13 06:18:21;;;;;;;12.70;12.10;;;19.20;54.20;;;;;;5091968;28;20446;-53
2023/04/13 06:20:48;;;;;;;11.00;10.50;;;19.20;54.00;;;;;;5092224;28;20470;-52
2023/04/13 06:23:15;;;;;;;9.87;9.50;;;19.20;54.00;;;;;;5092268;28;20481;-52
2023/04/13 06:25:43;;;;;;;10.07;9.63;;;19.20;53.90;;;;;;5092283;28;20987;-52
2023/04/13 06:28:11;;;;;;;10.60;10.30;;;19.20;53.70;;;;;;5091916;28;20444;-53
2023/04/13 06:30:38;;;;;;;10.53;10.13;;;19.20;53.70;;;;;;5091975;28;20535;-57
2023/04/13 06:33:06;;;;;;;10.30;10.00;;;19.20;53.60;;;;;;5091966;28;20455;-52
2023/04/13 06:35:34;;;;;;;10.23;9.93;;;19.20;53.50;;;;;;5091740;28;20484;-52
2023/04/13 06:38:02;;;;;;;10.73;10.43;;;19.20;53.40;;;;;;5091795;28;20447;-51
2023/04/13 06:40:32;;;;;;;10.70;10.30;;;19.20;53.40;;;;;;5091896;28;20471;-51
2023/04/13 06:42:58;;;;;;;10.53;10.23;;;19.20;53.40;;;;;;5091858;28;20447;-51
2023/04/13 06:45:25;;;;;;;10.43;10.20;;;19.20;53.30;;;;;;5091780;28;20493;-52
2023/04/13 06:47:53;;;;;;;11.63;11.33;;;19.20;53.20;;;;;;5091511;28;20537;-51
2023/04/13 06:50:21;;;;;;;10.40;10.20;;;19.20;53.10;;;;;;5091549;28;20482;-51
2023/04/13 06:52:49;;;;;;;11.23;10.50;;;19.20;53.10;;;;;;5091748;28;20511;-51
2023/04/13 06:55:16;;;;;;;9.90;9.70;;;19.20;53.00;;;;;;5091619;28;20503;-53
2023/04/13 06:57:44;;;;;;;10.60;10.30;;;19.20;53.00;;;;;;5091840;28;20458;-51
2023/04/13 07:00:13;;;;;;;10.20;10.00;;;19.20;52.90;;;;;;5091612;28;20484;-51
2023/04/13 07:02:40;;;;;;;10.77;10.43;;;19.10;52.80;;;;;;5091596;28;21033;-51
2023/04/13 07:05:08;;;;;;;10.87;10.57;;;19.20;52.80;;;;;;5091620;28;20470;-51
2023/04/13 07:07:36;;;;;;;10.60;10.30;;;19.10;52.70;;;;;;5091527;28;20466;-50
2023/04/13 07:10:04;;;;;;;10.73;10.33;;;19.10;52.70;;;;;;5096001;28;20565;-51
2023/04/13 07:12:32;;;;;;;10.40;10.20;;;19.20;52.70;;;;;;5095810;28;20908;-52
2023/04/13 07:14:59;;;;;;;11.00;10.50;;;19.10;52.50;;;;;;5095759;28;20998;-53
2023/04/13 07:17:27;;;;;;;11.73;11.43;;;19.10;52.50;;;;;;5095600;28;20889;-51
2023/04/13 07:19:53;;;;;;;10.30;10.00;;;19.10;52.40;;;;;;5095509;28;20438;-51
2023/04/13 07:22:20;;;;;;;10.40;10.20;;;19.10;52.40;;;;;;5095810;28;20438;-51
2023/04/13 07:24:48;;;;;;;10.90;10.70;;;19.10;52.40;;;;;;5095575;28;20474;-51
2023/04/13 07:27:15;;;;;;;10.60;10.40;;;19.10;52.30;;;;;;5095208;28;20497;-53
2023/04/13 07:29:42;;;;;;;10.83;10.53;;;19.10;52.30;;;;;;5095321;28;20482;-51
2023/04/13 07:32:09;;;;;;;10.87;10.67;;;19.10;52.20;;;;;;5095303;28;20481;-52
2023/04/13 07:34:36;;;;;;;10.50;10.30;;;19.10;52.20;;;;;;5095308;28;20949;-51
2023/04/13 07:37:03;;;;;;;10.50;10.20;;;19.10;52.10;;;;;;5095090;28;20481;-51
2023/04/13 07:39:31;;;;;;;10.40;10.00;;;19.10;52.10;;;;;;5095169;28;20481;-51
2023/04/13 07:42:00;;;;;;;10.87;10.30;;;19.00;52.00;;;;;;5095230;28;20446;-50
2023/04/13 07:44:27;;;;;;;10.83;10.50;;;19.10;52.00;;;;;;5095401;28;20447;-51
2023/04/13 07:46:55;;;;;;;10.43;10.23;;;19.00;52.00;;;;;;5094927;28;20492;-52
2023/04/13 07:49:22;;;;;;;11.00;10.70;;;19.00;51.90;;;;;;5095098;28;20456;-50
2023/04/13 07:51:49;;;;;;;10.60;10.40;;;19.00;51.90;;;;;;5095070;28;20528;-51
2023/04/13 07:54:16;;;;;;;10.40;10.20;;;19.00;51.90;;;;;;5094993;28;20532;-50
2023/04/13 07:56:43;;;;;;;10.57;10.27;;;19.00;51.80;;;;;;5094780;28;20546;-55
2023/04/13 07:59:12;;;;;;;10.90;10.60;;;19.00;51.80;;;;;;5094876;28;20484;-52
2023/04/13 08:01:39;;;;;;;11.10;10.60;;;19.00;51.80;;;;;;5094894;28;20445;-51
2023/04/13 08:04:06;;;;;;;10.80;10.60;;;19.00;51.70;;;;;;5094818;28;20473;-52
2023/04/13 08:06:34;;;;;;;10.50;10.30;;;19.00;51.70;;;;;;5094785;28;20545;-51
2023/04/13 08:09:01;;;;;;;10.00;9.80;;;19.00;51.70;;;;;;5094683;28;20450;-52
2023/04/13 08:11:28;;;;;;;10.60;10.40;;;19.00;51.70;;;;;;5094622;28;20483;-51
2023/04/13 08:13:55;;;;;;;10.37;10.07;;;19.00;51.70;;;;;;5094702;28;20545;-52
2023/04/13 08:16:23;;;;;;;10.30;10.10;;;19.00;51.60;;;;;;5094479;28;20494;-51
2023/04/13 08:18:50;;;;;;;10.30;10.10;;;19.00;51.60;;;;;;5094298;28;20529;-52
2023/04/13 08:21:17;;;;;;;10.00;9.80;;;19.00;51.50;;;;;;5093831;28;20435;-50
2023/04/13 08:23:45;;;;;;;9.80;9.50;;;19.00;51.50;;;;;;5094447;28;20457;-51
2023/04/13 08:26:17;;;;;;;10.07;9.87;;;19.00;51.50;;;;;;5094393;28;21024;-51
2023/04/13 08:28:45;;;;;;;11.17;10.87;;;19.00;51.50;;;;;;5094202;28;20811;-52
2023/04/13 08:31:12;;;;;;;10.63;10.33;;;19.00;51.50;;;;;;5094385;28;20905;-53
2023/04/13 08:33:40;;;;;;;10.70;10.43;;;19.00;51.50;;;;;;5094320;28;20454;-50
2023/04/13 08:36:07;;;;;;;10.80;10.50;;;19.00;51.50;;;;;;5094312;28;20539;-51
2023/04/13 08:38:35;;;;;;;10.70;10.40;;;19.00;51.50;;;;;;5093982;28;20945;-51
2023/04/13 08:41:03;;;;;;;10.80;10.50;;;19.00;51.40;;;;;;5094190;28;20525;-50
2023/04/13 08:43:32;;;;;;;11.20;10.77;;;18.90;51.30;;;;;;5094085;28;20552;-50
2023/04/13 08:45:59;;;;;;;10.60;10.30;;;18.90;51.30;;;;;;5093894;28;20549;-52
2023/04/13 08:48:26;;;;;;;10.90;10.60;;;19.00;51.40;;;;;;5093731;28;20489;-50
2023/04/13 08:50:57;;;;;;;10.90;10.60;;;18.90;51.30;;;;;;5093848;28;20557;-52
2023/04/13 08:53:24;;;;;;;11.10;10.70;;;19.00;51.40;;;;;;5093902;28;20442;-51
2023/04/13 08:55:52;;;;;;;10.60;10.40;;;18.90;51.30;;;;;;5093958;28;20494;-52
2023/04/13 08:58:21;;;;;;;10.37;10.17;;;18.90;51.30;;;;;;5093589;28;20449;-51
2023/04/13 09:00:49;;;;;;;11.17;10.87;;;18.90;51.30;;;;;;5094055;28;20442;-50
2023/04/13 09:03:21;;;;;;;11.03;10.83;;;18.90;51.30;;;;;;5093589;28;21016;-51
2023/04/13 09:05:52;;;;;;;10.53;10.33;;;18.90;51.20;;;;;;5093714;28;20462;-52
2023/04/13 09:08:21;;;;;;;11.13;10.83;;;18.90;51.20;;;;;;5093521;28;20635;-52
2023/04/13 09:10:48;;;;;;;10.57;10.37;;;18.90;51.20;;;;;;5093612;28;20540;-52
2023/04/13 09:13:15;;;;;;;10.40;10.20;;;18.90;51.70;;;;;;5093592;28;20470;-52
2023/04/13 09:15:46;;;;;;;10.97;10.67;;;18.90;51.20;;;;;;5093324;28;20937;-52
2023/04/13 09:18:12;;;;;;;10.93;10.70;;;18.90;51.10;;;;;;5093197;28;20972;-52
2023/04/13 09:20:40;;;;;;;11.13;10.70;;;18.90;51.10;;;;;;5093424;28;20466;-52
2023/04/13 09:23:14;;;;;;;10.83;10.63;;;18.90;51.10;;;;;;5093291;28;20446;-51
2023/04/13 09:25:45;;;;;;;11.10;10.80;;;18.90;51.10;;;;;;5093187;28;20450;-53
2023/04/13 09:28:16;;;;;;;11.07;10.77;;;18.90;51.10;;;;;;5093023;28;20482;-51
2023/04/13 09:30:44;;;;;;;11.30;10.90;;;18.90;51.10;;;;;;5092974;28;20481;-51
2023/04/13 09:33:12;;;;;;;10.70;10.40;;;18.90;51.10;;;;;;5092246;28;20537;-51
2023/04/13 09:35:39;;;;;;;10.77;10.50;;;18.90;51.00;;;;;;5092804;28;20538;-51
2023/04/13 09:38:07;;;;;;;10.80;10.50;;;18.90;51.00;;;;;;5092845;28;20453;-51
2023/04/13 09:40:36;;;;;;;10.73;10.53;;;18.90;51.00;;;;;;5092994;28;20504;-55
2023/04/13 09:43:06;;;;;;;11.47;11.13;;;18.90;51.00;;;;;;5092995;28;20756;-51
2023/04/13 09:45:37;;;;;;;11.13;10.93;;;18.90;51.00;;;;;;5092820;28;20529;-51
2023/04/13 09:48:05;;;;;;;10.77;10.57;;;18.90;51.00;;;;;;5092622;28;20525;-52
2023/04/13 09:50:35;;;;;;;11.10;10.80;;;18.90;51.00;;;;;;5092606;28;20514;-51
2023/04/13 09:53:04;;;;;;;10.87;10.67;;;18.90;51.00;;;;;;5092678;28;20454;-54
2023/04/13 09:55:33;;;;;;;10.57;10.37;;;18.90;51.00;;;;;;5092577;28;20450;-51
2023/04/13 09:58:10;;;;;;;10.80;10.60;;;18.90;51.00;;;;;;5092345;28;20529;-51
2023/04/13 10:00:38;;;;;;;11.40;11.00;;;18.90;51.00;;;;;;5092559;28;20485;-51
2023/04/13 10:03:10;;;;;;;11.20;10.90;;;18.90;51.00;;;;;;5092672;28;20535;-51
2023/04/13 10:05:37;;;;;;;11.10;10.80;;;18.90;50.90;;;;;;5092450;28;20449;-52
2023/04/13 10:08:05;;;;;;;11.20;10.90;;;18.90;50.90;;;;;;5092363;28;20827;-53
2023/04/13 10:10:32;;;;;;;11.33;11.03;;;18.90;50.90;;;;;;5092281;28;20478;-52
2023/04/13 10:13:03;;;;;;;11.93;11.37;;;18.90;50.90;;;;;;5092343;28;20454;-51
2023/04/13 10:15:51;;;;;;;10.50;10.20;;;18.90;50.90;;;;;;5092299;28;20488;-52
2023/04/13 10:18:27;;;;;;;11.20;10.90;;;18.90;50.90;;;;;;5092140;28;20443;-51
2023/04/13 10:20:57;;;;;;;11.30;11.00;;;18.90;50.90;;;;;;5092215;28;20473;-51
2023/04/13 10:23:26;;;;;;;10.93;10.73;;;18.90;50.90;;;;;;5092541;28;20434;-50
2023/04/13 10:25:54;;;;;;;10.70;10.50;;;18.90;50.90;;;;;;5092009;28;20549;-51
2023/04/13 10:28:23;;;;;;;11.13;10.83;;;18.90;50.90;;;;;;5091898;28;20525;-52
2023/04/13 10:30:52;;;;;;;11.30;11.00;;;18.90;50.80;;;;;;5091975;28;20482;-51
2023/04/13 10:33:20;;;;;;;11.63;11.13;;;18.90;50.80;;;;;;5092039;28;20481;-51
2023/04/13 10:35:57;;;;;;;10.90;10.60;;;18.90;50.80;;;;;;5091736;28;21070;-52
2023/04/13 10:38:24;;;;;;;10.70;10.50;;;18.90;50.80;;;;;;5092054;28;20442;-53
2023/04/13 10:40:51;;;;;;;11.30;10.83;;;18.90;50.80;;;;;;5091905;28;20481;-51
2023/04/13 10:43:28;;;;;;;11.10;10.80;;;18.90;50.80;;;;;;5091605;28;20807;-51
2023/04/13 10:46:12;;;;;;;10.63;10.43;;;18.90;50.80;;;;;;5091771;28;20469;-51
2023/04/13 10:48:41;;;;;;;11.00;10.70;;;18.90;50.80;;;;;;5091748;28;20521;-51
2023/04/13 10:51:08;;;;;;;10.80;10.50;;;18.90;50.80;;;;;;5091641;28;20573;-50
2023/04/13 10:53:36;;;;;;;11.43;11.13;;;18.90;50.80;;;;;;5091841;28;20957;-51
2023/04/13 10:56:03;;;;;;;11.00;10.47;;;18.90;50.80;;;;;;5091640;28;20527;-51
2023/04/13 10:58:32;;;;;;;11.30;11.00;;;18.90;50.80;;;;;;5091711;28;20533;-51
2023/04/13 11:00:59;;;;;;;11.00;10.80;;;18.90;50.70;;;;;;5091744;28;20835;-50
2023/04/13 11:03:28;;;;;;;11.10;10.90;;;18.90;50.70;;;;;;5091657;28;20542;-51
2023/04/13 11:05:57;;;;;;;11.13;10.90;;;18.90;50.70;;;;;;5091726;28;20465;-51
2023/04/13 11:08:26;;;;;;;11.30;11.00;;;18.90;50.70;;;;;;5091345;28;20449;-52
2023/04/13 11:10:54;;;;;;;11.97;11.67;;;18.90;50.70;;;;;;5091421;28;21071;-51
2023/04/13 11:13:23;;;;;;;11.60;11.30;;;18.90;50.60;;;;;;5091646;28;20532;-51
2023/04/13 11:15:51;;;;;;;11.50;11.20;;;18.90;50.60;;;;;;5091533;28;20477;-51
2023/04/13 11:18:26;;;;;;;11.93;11.63;;;18.90;50.60;;;;;;5091255;28;20448;-52
2023/04/13 11:20:54;;;;;;;11.40;11.00;;;18.90;50.60;;;;;;5091463;28;20948;-51
2023/04/13 11:23:22;;;;;;;11.87;11.47;;;18.90;50.60;;;;;;5091579;28;20449;-51
2023/04/13 11:25:54;;;;;;;11.63;11.27;;;18.90;50.60;;;;;;5091421;28;20923;-51
2023/04/13 11:28:22;;;;;;;11.37;11.07;;;18.90;50.60;;;;;;5091215;28;20497;-52
2023/04/13 11:30:54;;;;;;;11.20;10.90;;;18.90;50.60;;;;;;5091461;28;21034;-51
2023/04/13 11:33:25;;;;;;;11.67;11.37;;;18.90;50.60;;;;;;5091554;28;20446;-51
2023/04/13 11:35:54;;;;;;;11.43;11.13;;;18.90;50.60;;;;;;5091859;28;20482;-51
2023/04/13 11:38:21;;;;;;;11.30;11.00;;;18.90;50.60;;;;;;5091254;28;20541;-52
2023/04/13 11:40:49;;;;;;;11.57;11.23;;;18.90;50.50;;;;;;5091250;28;20484;-51
2023/04/13 11:43:16;;;;;;;11.73;11.23;;;18.90;50.60;;;;;;5091288;28;20994;-51
2023/04/13 11:45:46;;;;;;;11.10;10.80;;;18.90;50.60;;;;;;5091245;28;20450;-52
2023/04/13 11:48:13;;;;;;;11.00;10.80;;;18.90;50.60;;;;;;5090985;28;20446;-51
2023/04/13 11:50:41;;;;;;;11.30;10.90;;;18.90;50.50;;;;;;5091208;28;20537;-51
2023/04/13 11:53:10;;;;;;;10.63;10.37;;;18.80;50.50;;;;;;5091180;28;20481;-51
2023/04/13 11:55:38;;;;;;;11.00;10.70;;;18.90;50.60;;;;;;5092823;28;20879;-50
2023/04/13 11:58:10;;;;;;;11.30;10.90;;;18.90;50.50;;;;;;5094865;28;20449;-51
2023/04/13 12:00:40;;;;;;;11.47;11.00;;;18.90;50.50;;;;;;5094891;28;20469;-52
2023/04/13 12:03:13;;;;;;;11.10;10.80;;;18.90;50.50;;;;;;5094930;28;20453;-53
2023/04/13 12:05:41;;;;;;;11.10;10.80;;;18.90;50.50;;;;;;5094865;28;20508;-51
2023/04/13 12:08:19;;;;;;;10.90;10.60;;;18.90;50.50;;;;;;5094615;28;20442;-51
2023/04/13 12:10:54;;;;;;;11.30;11.10;;;18.90;50.50;;;;;;5094829;28;20448;-50
2023/04/13 12:13:21;;;;;;;11.40;11.10;;;18.90;50.40;;;;;;5094854;28;20967;-53
2023/04/13 12:15:48;;;;;;;11.30;11.03;;;18.90;50.40;;;;;;5094696;28;20497;-51
2023/04/13 12:18:16;;;;;;;11.70;11.30;;;18.90;50.40;;;;;;5094462;28;20448;-51
2023/04/13 12:20:44;;;;;;;12.50;12.20;;;18.90;50.40;;;;;;5094650;28;20857;-51
2023/04/13 12:23:19;;;;;;;11.43;11.03;;;18.90;50.40;;;;;;5094479;28;20930;-51
2023/04/13 12:25:56;;;;;;;11.00;10.80;;;18.90;50.40;;;;;;5094329;28;20480;-53
2023/04/13 12:28:28;;;;;;;11.20;10.90;;;18.90;51.00;;;;;;5094165;28;20477;-53
2023/04/13 12:31:01;;;;;;;11.10;10.80;;;18.90;50.40;;;;;;5094262;28;20446;-53
2023/04/13 12:33:28;;;;;;;10.93;10.73;;;18.90;50.40;;;;;;5094327;28;20862;-54
2023/04/13 12:35:55;;;;;;;11.47;11.17;;;18.90;50.40;;;;;;5094022;28;20513;-54
2023/04/13 12:38:24;;;;;;;11.17;10.97;;;18.90;50.40;;;;;;5094081;28;20481;-56
2023/04/13 12:40:55;;;;;;;11.23;10.93;;;18.90;50.40;;;;;;5094209;28;20490;-55